This is the latest recevied weather packets stored in our database for station/object HP1COO-13. If no packets are shown the sender has not sent any weather packets the latest 10 day(s).
| Time | Temp. | Humidity | Pressure | Rain* | Wind** | Luminosity | Snow |
|---|---|---|---|---|---|---|---|
| 1777946132 | 27.22° C | 92% | 1008.5 hPa | 0 mm | - | - | - |
| 1777941936 | 27.78° C | 89% | 1008.1 hPa | 0 mm | - | - | - |
| 1777939526 | 27.78° C | 92% | 1007.7 hPa | 0 mm | - | - | - |
| 1777938321 | 27.78° C | 92% | 1007.3 hPa | 0 mm | - | - | - |
| 1777934125 | 28.89° C | 86% | 1006.7 hPa | 0 mm | - | - | - |
| 1777928724 | 30° C | 78% | 1007 hPa | 0 mm | - | - | - |
| 1777925129 | 30° C | 76% | 1007.3 hPa | 0 mm | - | - | - |
| 1777923343 | 30° C | 75% | 1007.4 hPa | 0 mm | - | - | - |
| 1777921535 | 30.56° C | 73% | 1007.7 hPa | 0 mm | - | - | - |
| 1777919126 | 33.33° C | 67% | 1007.9 hPa | 0 mm | - | - | - |
| 1777915532 | 33.33° C | 67% | 1009 hPa | 0 mm | - | - | - |
| 1777913725 | 31.67° C | 70% | 1009.4 hPa | 0 mm | - | - | - |
| 1777912520 | 31.11° C | 72% | 1009.6 hPa | 0 mm | - | - | - |
| 1777911918 | 32.22° C | 69% | 1009.8 hPa | 0 mm | - | - | - |
| 1777909528 | 32.78° C | 66% | 1009.9 hPa | 0 mm | - | - | - |
| 1777904127 | 29.44° C | 77% | 1009.9 hPa | 0 mm | - | - | - |
| 1777899931 | 28.33° C | 82% | 1009.9 hPa | 0 mm | - | - | - |
| 1777899329 | 28.33° C | 82% | 1009.6 hPa | 0 mm | - | - | - |
| 1777898727 | 28.33° C | 84% | 1009.4 hPa | 0 mm | - | - | - |
| 1777895735 | 25.56° C | 93% | 1009.4 hPa | 0 mm | - | - | - |
| 1777892121 | 25° C | 95% | 1008.5 hPa | 0 mm | - | - | - |
| 1777889129 | 25° C | 94% | 1008.3 hPa | 0 mm | - | - | - |
| 1777887925 | 25° C | 94% | 1008 hPa | 0 mm | - | - | - |
| 1777887322 | 25° C | 94% | 1008.1 hPa | 0 mm | - | - | - |
| 1777883728 | 25° C | 94% | 1008.1 hPa | 0 mm | - | - | - |
* Rain latest hour (hover to see other rain measurements)
** Current wind speed in m/s (hover to see current wind gust speed)